createdAt,value
2023-01-17T00:02:08.864Z,15.73
2023-01-17T00:04:54.664Z,18.57
2023-01-17T00:07:42.735Z,18.20
2023-01-17T00:10:14.043Z,14.53
2023-01-17T00:12:48.166Z,16.67
2023-01-17T00:15:19.514Z,17.33
2023-01-17T00:17:47.736Z,13.97
2023-01-17T00:20:34.159Z,13.83
2023-01-17T00:23:20.075Z,11.90
2023-01-17T00:26:06.097Z,13.73
2023-01-17T00:28:36.480Z,14.37
2023-01-17T00:31:04.863Z,13.23
2023-01-17T00:33:31.773Z,15.00
2023-01-17T00:35:59.300Z,13.10
2023-01-17T00:38:27.837Z,13.00
2023-01-17T00:40:54.995Z,12.33
2023-01-17T00:43:41.880Z,12.03
2023-01-17T00:46:28.509Z,13.03
2023-01-17T00:49:14.034Z,14.80
2023-01-17T00:51:59.339Z,12.43
2023-01-17T00:54:44.957Z,16.00
2023-01-17T00:57:30.223Z,11.53
2023-01-17T01:00:15.808Z,13.20
2023-01-17T01:03:02.726Z,11.97
2023-01-17T01:05:48.150Z,14.57
2023-01-17T01:08:36.173Z,16.20
2023-01-17T01:11:24.918Z,17.10
2023-01-17T01:14:10.328Z,18.90
2023-01-17T01:16:55.789Z,18.60
2023-01-17T01:19:42.714Z,18.03
2023-01-17T01:22:28.395Z,19.67
2023-01-17T01:25:14.149Z,20.53
2023-01-17T01:27:59.570Z,20.57
2023-01-17T01:30:45.306Z,19.57
2023-01-17T01:33:20.472Z,25.90
2023-01-17T01:35:51.575Z,20.63
2023-01-17T01:38:20.829Z,23.80
2023-01-17T01:40:51.541Z,24.90
2023-01-17T01:43:21.579Z,28.93
2023-01-17T01:45:53.702Z,26.47
2023-01-17T01:48:32.765Z,31.57
2023-01-17T01:51:04.637Z,24.40
2023-01-17T01:53:35.697Z,21.77
2023-01-17T01:56:06.529Z,29.17
2023-01-17T01:58:36.898Z,28.53
2023-01-17T02:01:06.382Z,26.17
2023-01-17T02:03:35.383Z,28.00
2023-01-17T02:06:14.352Z,25.33
2023-01-17T02:08:43.056Z,26.23
2023-01-17T02:11:11.523Z,24.63
2023-01-17T02:13:39.546Z,24.30
2023-01-17T02:16:19.031Z,27.37
2023-01-17T02:18:58.225Z,26.07
2023-01-17T02:21:30.481Z,29.63
2023-01-17T02:24:39.640Z,27.87
2023-01-17T02:27:23.594Z,25.47
2023-01-17T02:30:15.412Z,24.87
2023-01-17T02:32:52.764Z,29.03
2023-01-17T02:35:29.059Z,27.03
2023-01-17T02:38:04.137Z,24.80
2023-01-17T02:40:37.736Z,25.67
2023-01-17T02:43:09.440Z,24.87
2023-01-17T02:45:37.419Z,26.90
2023-01-17T02:48:09.320Z,27.03
2023-01-17T02:50:52.056Z,26.40
2023-01-17T02:53:36.521Z,24.40
2023-01-17T02:56:15.147Z,25.40
2023-01-17T02:59:02.398Z,23.83
2023-01-17T03:01:46.784Z,22.70
2023-01-17T03:04:21.233Z,27.20
2023-01-17T03:06:54.756Z,23.53
2023-01-17T03:09:23.733Z,22.40
2023-01-17T03:11:51.683Z,21.63
2023-01-17T03:14:19.690Z,23.83
2023-01-17T03:16:48.424Z,27.37
2023-01-17T03:19:17.920Z,27.47
2023-01-17T03:21:45.845Z,25.50
2023-01-17T03:24:13.785Z,22.23
2023-01-17T03:26:44.850Z,25.70
2023-01-17T03:29:12.868Z,30.03
2023-01-17T03:31:40.926Z,26.17
2023-01-17T03:34:08.909Z,23.07
2023-01-17T03:36:38.299Z,24.60
2023-01-17T03:39:06.353Z,27.87
2023-01-17T03:41:34.299Z,26.90
2023-01-17T03:44:02.325Z,23.10
2023-01-17T03:46:30.597Z,25.30
2023-01-17T03:48:58.535Z,21.83
2023-01-17T03:51:27.013Z,27.10
2023-01-17T03:53:56.290Z,21.00
2023-01-17T03:56:24.227Z,21.33
2023-01-17T03:58:52.553Z,23.63
2023-01-17T04:01:20.544Z,21.47
2023-01-17T04:03:48.503Z,23.30
2023-01-17T04:06:16.486Z,25.87
2023-01-17T04:08:44.477Z,25.80
2023-01-17T04:11:13.872Z,22.77
2023-01-17T04:13:41.766Z,21.50
2023-01-17T04:16:14.283Z,29.47
2023-01-17T04:18:42.496Z,28.03
2023-01-17T04:21:10.503Z,35.20
2023-01-17T04:23:38.525Z,28.20
2023-01-17T04:26:06.662Z,25.90
2023-01-17T04:28:35.962Z,24.40
2023-01-17T04:31:03.952Z,20.50
2023-01-17T04:33:32.111Z,27.70
2023-01-17T04:36:00.241Z,29.27
2023-01-17T04:38:28.250Z,39.03
2023-01-17T04:40:56.118Z,53.67
2023-01-17T04:43:24.041Z,34.67
2023-01-17T04:45:57.236Z,21.37
2023-01-17T04:48:26.087Z,33.30
2023-01-17T04:51:00.251Z,22.93
2023-01-17T04:53:28.698Z,22.23
2023-01-17T04:55:56.851Z,25.97
2023-01-17T04:58:25.052Z,20.60
2023-01-17T05:00:53.123Z,29.53
2023-01-17T05:03:23.671Z,23.50
2023-01-17T05:05:51.792Z,22.00
2023-01-17T05:08:19.729Z,21.37
2023-01-17T05:10:48.429Z,23.03
2023-01-17T05:13:17.457Z,19.70
2023-01-17T05:15:45.691Z,23.07
2023-01-17T05:18:14.551Z,23.50
2023-01-17T05:20:43.937Z,25.63
2023-01-17T05:23:12.221Z,26.50
2023-01-17T05:25:44.807Z,21.27
2023-01-17T05:28:13.701Z,23.43
2023-01-17T05:30:42.133Z,21.63
2023-01-17T05:33:10.519Z,21.90
2023-01-17T05:35:38.654Z,23.63
2023-01-17T05:38:08.000Z,19.90
2023-01-17T05:40:36.537Z,18.53
2023-01-17T05:43:04.893Z,19.77
2023-01-17T05:45:34.090Z,21.73
2023-01-17T05:48:02.928Z,23.60
2023-01-17T05:50:33.087Z,18.77
2023-01-17T05:53:02.883Z,17.77
2023-01-17T05:55:33.337Z,20.07
2023-01-17T05:58:02.255Z,16.87
2023-01-17T06:00:31.175Z,20.90
2023-01-17T06:03:00.713Z,19.67
2023-01-17T06:05:30.178Z,26.77
2023-01-17T06:07:58.178Z,25.83
2023-01-17T06:10:26.776Z,28.10
2023-01-17T06:13:04.415Z,26.43
2023-01-17T06:15:32.718Z,29.40
2023-01-17T06:18:15.217Z,23.50
2023-01-17T06:20:44.776Z,28.10
2023-01-17T06:23:17.384Z,25.27
2023-01-17T06:25:47.537Z,26.83
2023-01-17T06:28:18.204Z,22.93
2023-01-17T06:30:46.348Z,27.50
2023-01-17T06:33:14.946Z,27.43
2023-01-17T06:35:48.853Z,27.70
2023-01-17T06:38:16.995Z,23.97
2023-01-17T06:40:44.946Z,20.97
2023-01-17T06:43:12.955Z,23.27
2023-01-17T06:45:42.316Z,21.67
2023-01-17T06:48:10.433Z,21.20
2023-01-17T06:50:38.539Z,20.83
2023-01-17T06:53:08.140Z,23.47
2023-01-17T06:55:40.124Z,21.10
2023-01-17T06:58:09.658Z,21.97
2023-01-17T07:00:40.324Z,21.57
2023-01-17T07:03:18.466Z,22.93
2023-01-17T07:05:46.600Z,21.07
2023-01-17T07:08:16.407Z,24.20
2023-01-17T07:10:45.548Z,19.40
2023-01-17T07:13:13.803Z,20.57
2023-01-17T07:15:41.781Z,22.47
2023-01-17T07:18:11.217Z,23.93
2023-01-17T07:20:39.376Z,20.53
2023-01-17T07:23:07.338Z,21.10
2023-01-17T07:25:35.275Z,19.97
2023-01-17T07:28:03.195Z,21.53
2023-01-17T07:30:31.134Z,20.90
2023-01-17T07:32:59.060Z,21.20
2023-01-17T07:35:28.708Z,18.70
2023-01-17T07:37:56.669Z,20.30
2023-01-17T07:40:25.343Z,18.10
2023-01-17T07:42:53.315Z,19.30
2023-01-17T07:45:21.923Z,27.07
2023-01-17T07:47:50.102Z,20.67
2023-01-17T07:50:18.207Z,23.33
2023-01-17T07:52:51.445Z,17.57
2023-01-17T07:55:19.380Z,18.57
2023-01-17T07:57:50.673Z,18.77
2023-01-17T08:00:19.652Z,18.40
2023-01-17T08:02:47.623Z,19.50
2023-01-17T08:05:15.953Z,21.33
2023-01-17T08:07:43.874Z,20.63
2023-01-17T08:10:17.885Z,20.70
2023-01-17T08:12:47.000Z,20.20
2023-01-17T08:15:15.654Z,17.57
2023-01-17T08:17:47.007Z,16.83
2023-01-17T08:20:15.210Z,20.97
2023-01-17T08:22:43.559Z,19.73
2023-01-17T08:25:13.554Z,18.87
2023-01-17T08:27:41.734Z,16.63
2023-01-17T08:30:10.877Z,17.50
2023-01-17T08:32:40.658Z,19.67
2023-01-17T08:35:09.263Z,16.90
2023-01-17T08:37:38.443Z,20.10
2023-01-17T08:40:07.911Z,20.67
2023-01-17T08:42:39.692Z,21.23
2023-01-17T08:45:10.136Z,17.23
2023-01-17T08:47:38.591Z,18.30
2023-01-17T08:50:07.748Z,17.20
2023-01-17T08:52:36.065Z,17.03
2023-01-17T08:55:05.769Z,15.23
2023-01-17T08:57:33.788Z,14.83
2023-01-17T09:00:03.551Z,14.83
2023-01-17T09:02:31.490Z,19.33
2023-01-17T09:05:00.738Z,13.60
2023-01-17T09:07:28.992Z,15.80
2023-01-17T09:09:56.949Z,14.80
2023-01-17T09:12:25.721Z,14.60
2023-01-17T09:14:53.699Z,15.73
2023-01-17T09:17:23.022Z,16.00
2023-01-17T09:19:50.961Z,14.53
2023-01-17T09:22:19.065Z,14.23
2023-01-17T09:24:47.368Z,17.33
2023-01-17T09:27:15.353Z,16.40
2023-01-17T09:29:43.391Z,12.80
2023-01-17T09:32:11.451Z,13.63
2023-01-17T09:34:40.717Z,17.20
2023-01-17T09:37:08.648Z,15.60
2023-01-17T09:39:36.627Z,16.07
2023-01-17T09:42:18.385Z,17.73
2023-01-17T09:44:51.535Z,11.77
2023-01-17T09:47:29.497Z,13.40
2023-01-17T09:50:08.558Z,12.93
2023-01-17T09:52:36.573Z,13.93
2023-01-17T09:55:07.894Z,19.23
2023-01-17T09:57:45.040Z,19.33
2023-01-17T10:00:23.278Z,18.10
2023-01-17T10:03:04.423Z,15.97
2023-01-17T10:05:50.719Z,15.37
2023-01-17T10:08:32.550Z,20.63
2023-01-17T10:11:17.900Z,12.87
2023-01-17T10:13:54.539Z,14.13
2023-01-17T10:16:35.618Z,13.30
2023-01-17T10:19:17.801Z,14.17
2023-01-17T10:22:02.432Z,14.03
2023-01-17T10:24:48.180Z,15.97
2023-01-17T10:27:21.181Z,15.47
2023-01-17T10:29:50.807Z,14.57
2023-01-17T10:32:20.578Z,15.40
2023-01-17T10:34:51.464Z,21.33
2023-01-17T10:37:24.374Z,23.63
2023-01-17T10:39:56.249Z,19.37
2023-01-17T10:42:29.975Z,22.67
2023-01-17T10:45:05.315Z,16.73
2023-01-17T10:47:39.461Z,28.47
2023-01-17T10:50:13.150Z,18.33
2023-01-17T10:52:48.885Z,18.73
2023-01-17T10:55:29.566Z,14.50
2023-01-17T10:57:58.913Z,18.27
2023-01-17T11:00:39.835Z,21.10
2023-01-17T11:03:10.776Z,19.80
2023-01-17T11:05:40.694Z,15.57
2023-01-17T11:08:11.807Z,14.07
2023-01-17T11:10:43.686Z,16.57
2023-01-17T11:13:30.868Z,18.17
2023-01-17T11:16:02.237Z,12.10
2023-01-17T11:18:32.535Z,12.80
2023-01-17T11:21:15.728Z,13.03
2023-01-17T11:23:46.384Z,12.97
2023-01-17T11:26:25.172Z,15.53
2023-01-17T11:28:53.544Z,12.90
2023-01-17T11:31:27.220Z,13.60
2023-01-17T11:34:14.823Z,16.10
2023-01-17T11:36:43.066Z,14.27
2023-01-17T11:39:27.512Z,13.93
2023-01-17T11:41:56.076Z,11.13
2023-01-17T11:44:26.622Z,13.40
2023-01-17T11:47:24.726Z,13.20
2023-01-17T11:49:52.778Z,13.37
2023-01-17T11:52:25.141Z,14.17
2023-01-17T11:54:56.246Z,13.33
2023-01-17T11:57:27.037Z,16.17
2023-01-17T12:00:03.651Z,13.93
2023-01-17T12:03:06.726Z,14.17
2023-01-17T12:05:43.360Z,14.00
2023-01-17T12:08:23.163Z,10.90
2023-01-17T12:10:59.275Z,13.80
2023-01-17T12:13:57.906Z,14.77
2023-01-17T12:16:38.968Z,19.50
2023-01-17T12:19:34.546Z,19.07
2023-01-17T12:22:23.373Z,15.40
2023-01-17T12:25:04.231Z,20.60
2023-01-17T12:27:42.692Z,22.40
2023-01-17T12:30:32.935Z,26.20
2023-01-17T12:33:12.087Z,26.13
2023-01-17T12:35:44.887Z,34.33
2023-01-17T12:38:31.770Z,27.40
2023-01-17T12:41:07.258Z,35.83
2023-01-17T12:43:40.496Z,38.00
2023-01-17T12:46:20.782Z,33.90
2023-01-17T12:48:55.169Z,25.37
2023-01-17T12:51:29.393Z,29.47
2023-01-17T12:54:01.660Z,23.93
2023-01-17T12:56:34.519Z,20.43
2023-01-17T12:59:13.849Z,22.03
2023-01-17T13:01:44.880Z,13.20
2023-01-17T13:04:19.571Z,18.77
2023-01-17T13:06:57.973Z,23.43
2023-01-17T13:09:28.019Z,20.57
2023-01-17T13:12:01.429Z,23.17
2023-01-17T13:14:30.821Z,31.30
2023-01-17T13:17:01.466Z,39.20
2023-01-17T13:19:38.974Z,29.70
2023-01-17T13:22:10.404Z,23.20
2023-01-17T13:24:48.696Z,19.43
2023-01-17T13:27:35.382Z,26.13
2023-01-17T13:30:54.051Z,30.33
2023-01-17T13:33:35.360Z,19.93
2023-01-17T13:36:16.767Z,21.47
2023-01-17T13:39:08.676Z,19.47
2023-01-17T13:41:46.849Z,19.77
2023-01-17T13:44:33.148Z,15.97
2023-01-17T13:47:04.508Z,16.83
2023-01-17T13:49:51.521Z,16.27
2023-01-17T13:52:33.606Z,17.00
2023-01-17T13:55:03.301Z,14.67
2023-01-17T13:57:46.740Z,16.37
2023-01-17T14:00:59.500Z,17.90
2023-01-17T14:04:07.448Z,17.03
2023-01-17T14:06:41.687Z,15.70
2023-01-17T14:09:20.096Z,20.33
2023-01-17T14:12:07.612Z,18.97
2023-01-17T14:14:47.806Z,21.13
2023-01-17T14:17:55.729Z,18.60
2023-01-17T14:21:05.195Z,17.10
2023-01-17T14:23:49.242Z,17.93
2023-01-17T14:26:44.713Z,16.23
2023-01-17T14:29:45.900Z,15.67
2023-01-17T14:32:15.731Z,16.23
2023-01-17T14:34:44.935Z,18.60
2023-01-17T14:37:36.049Z,18.70
2023-01-17T14:40:15.153Z,15.67
2023-01-17T14:42:44.094Z,17.47
2023-01-17T14:45:16.955Z,21.37
2023-01-17T14:47:46.005Z,20.23
2023-01-17T14:50:22.969Z,17.23
2023-01-17T14:53:09.205Z,19.27
2023-01-17T14:55:37.855Z,17.90
2023-01-17T14:58:06.291Z,19.97
2023-01-17T15:00:40.654Z,22.13
2023-01-17T15:03:12.645Z,21.43
2023-01-17T15:05:43.698Z,20.90
2023-01-17T15:08:16.115Z,19.03
2023-01-17T15:10:51.825Z,21.60
2023-01-17T15:13:35.414Z,15.67
2023-01-17T15:16:20.253Z,20.57
2023-01-17T15:18:48.719Z,21.07
2023-01-17T15:21:19.276Z,19.27
2023-01-17T15:23:52.464Z,18.63
2023-01-17T15:26:23.201Z,19.10
2023-01-17T15:28:51.857Z,22.87
2023-01-17T15:31:37.831Z,24.67
2023-01-17T15:34:08.086Z,25.10
2023-01-17T15:36:36.535Z,32.10
2023-01-17T15:39:08.639Z,30.47
2023-01-17T15:41:39.549Z,41.93
2023-01-17T15:44:09.164Z,32.73
2023-01-17T15:46:43.984Z,31.30
2023-01-17T15:49:20.203Z,27.93
2023-01-17T15:51:51.254Z,26.00
2023-01-17T15:54:47.459Z,22.93
2023-01-17T15:57:25.801Z,47.50
2023-01-17T15:59:56.246Z,48.33
2023-01-17T16:02:42.771Z,39.30
2023-01-17T16:05:41.797Z,28.53
2023-01-17T16:08:39.488Z,26.97
2023-01-17T16:11:11.745Z,44.43
2023-01-17T16:13:42.214Z,39.73
2023-01-17T16:16:16.165Z,50.23
2023-01-17T16:18:46.488Z,52.33
2023-01-17T16:21:21.665Z,36.40
2023-01-17T16:23:49.909Z,31.37
2023-01-17T16:26:19.553Z,29.93
2023-01-17T16:28:47.939Z,27.97
2023-01-17T16:31:16.919Z,28.03
2023-01-17T16:33:46.031Z,29.50
2023-01-17T16:36:16.536Z,29.70
2023-01-17T16:38:45.535Z,32.50
2023-01-17T16:41:13.913Z,34.93
2023-01-17T16:43:43.301Z,61.87
2023-01-17T16:46:12.864Z,69.40
2023-01-17T16:48:40.931Z,89.67
2023-01-17T16:51:09.570Z,65.40
2023-01-17T16:53:38.209Z,74.93
2023-01-17T16:56:13.665Z,65.30
2023-01-17T16:58:43.476Z,64.60
2023-01-17T17:01:15.391Z,48.40
2023-01-17T17:03:43.885Z,45.03
2023-01-17T17:06:12.707Z,42.73
2023-01-17T17:08:40.939Z,45.63
2023-01-17T17:11:13.216Z,46.47
2023-01-17T17:13:43.794Z,53.03
2023-01-17T17:16:14.949Z,51.13
2023-01-17T17:18:43.753Z,61.40
2023-01-17T17:21:11.910Z,50.60
2023-01-17T17:23:39.886Z,42.27
2023-01-17T17:26:08.154Z,39.10
2023-01-17T17:28:36.751Z,38.20
2023-01-17T17:31:10.418Z,39.33
2023-01-17T17:33:38.796Z,48.33
2023-01-17T17:36:10.127Z,57.63
2023-01-17T17:38:50.784Z,52.70
2023-01-17T17:41:21.712Z,39.30
2023-01-17T17:43:51.159Z,41.93
2023-01-17T17:46:21.640Z,49.57
2023-01-17T17:48:49.745Z,50.53
2023-01-17T17:51:31.121Z,52.27
2023-01-17T17:54:01.556Z,39.77
2023-01-17T17:56:30.807Z,39.43
2023-01-17T17:58:59.598Z,43.33
2023-01-17T18:01:29.174Z,50.27
2023-01-17T18:03:58.616Z,50.30
2023-01-17T18:06:26.631Z,55.93
2023-01-17T18:08:54.979Z,57.33
2023-01-17T18:11:25.997Z,47.37
2023-01-17T18:13:55.916Z,43.03
2023-01-17T18:16:26.641Z,39.07
2023-01-17T18:18:57.235Z,49.20
2023-01-17T18:21:27.056Z,55.80
2023-01-17T18:23:58.672Z,72.50
2023-01-17T18:26:28.229Z,70.63
2023-01-17T18:28:58.107Z,61.40
2023-01-17T18:31:27.574Z,54.97
2023-01-17T18:33:58.824Z,68.90
2023-01-17T18:36:28.575Z,64.80
2023-01-17T18:38:57.016Z,75.67
2023-01-17T18:41:26.956Z,67.97
2023-01-17T18:43:57.980Z,78.27
2023-01-17T18:46:27.293Z,72.37
2023-01-17T18:48:58.032Z,76.93
2023-01-17T18:51:26.730Z,80.50
2023-01-17T18:53:55.011Z,64.27
2023-01-17T18:56:23.796Z,69.83
2023-01-17T18:58:52.279Z,56.63
2023-01-17T19:01:23.225Z,64.47
2023-01-17T19:03:52.881Z,69.80
2023-01-17T19:06:24.872Z,61.97
2023-01-17T19:08:53.456Z,76.60
2023-01-17T19:11:24.362Z,80.60
2023-01-17T19:13:52.527Z,76.77
2023-01-17T19:16:24.411Z,79.40
2023-01-17T19:18:53.083Z,79.03
2023-01-17T19:21:24.243Z,69.70
2023-01-17T19:23:52.687Z,56.83
2023-01-17T19:26:22.891Z,61.43
2023-01-17T19:28:51.014Z,70.20
2023-01-17T19:31:21.897Z,91.93
2023-01-17T19:33:51.666Z,99.13
2023-01-17T19:36:23.528Z,84.70
2023-01-17T19:39:04.097Z,83.70
2023-01-17T19:41:35.151Z,75.37
2023-01-17T19:44:05.251Z,60.70
2023-01-17T19:46:33.572Z,49.23
2023-01-17T19:49:01.846Z,48.80
2023-01-17T19:51:31.194Z,54.77
2023-01-17T19:54:01.340Z,45.23
2023-01-17T19:56:30.068Z,41.73
2023-01-17T19:59:01.356Z,40.30
2023-01-17T20:01:31.705Z,42.30
2023-01-17T20:04:00.809Z,49.30
2023-01-17T20:06:31.764Z,48.30
2023-01-17T20:08:59.964Z,48.60
2023-01-17T20:11:29.100Z,48.03
2023-01-17T20:13:59.276Z,46.13
2023-01-17T20:16:28.937Z,60.70
2023-01-17T20:18:57.755Z,52.10
2023-01-17T20:21:27.910Z,57.40
2023-01-17T20:23:58.442Z,57.53
2023-01-17T20:26:34.650Z,51.80
2023-01-17T20:29:03.430Z,52.33
2023-01-17T20:31:32.170Z,63.20
2023-01-17T20:34:00.286Z,65.53
2023-01-17T20:36:29.027Z,54.17
2023-01-17T20:38:58.484Z,54.93
2023-01-17T20:41:30.115Z,60.20
2023-01-17T20:44:01.198Z,55.47
2023-01-17T20:46:32.343Z,57.57
2023-01-17T20:49:01.207Z,54.60
2023-01-17T20:51:30.522Z,51.80
2023-01-17T20:54:02.647Z,46.83
2023-01-17T20:56:34.490Z,46.87
2023-01-17T20:59:03.714Z,43.80
2023-01-17T21:01:31.984Z,46.20
2023-01-17T21:04:00.167Z,48.00
2023-01-17T21:06:28.342Z,45.10
2023-01-17T21:08:56.552Z,47.67
2023-01-17T21:11:27.502Z,48.50
2023-01-17T21:13:56.310Z,42.20
2023-01-17T21:16:28.063Z,48.27
2023-01-17T21:18:56.044Z,48.13
2023-01-17T21:21:25.792Z,48.93
2023-01-17T21:23:55.257Z,61.70
2023-01-17T21:26:26.921Z,54.87
2023-01-17T21:28:55.882Z,58.63
2023-01-17T21:31:26.147Z,62.90
2023-01-17T21:33:56.234Z,75.87
2023-01-17T21:36:25.934Z,68.87
2023-01-17T21:38:56.824Z,75.00
2023-01-17T21:41:28.442Z,71.50
2023-01-17T21:43:57.710Z,70.17
2023-01-17T21:46:26.778Z,67.83
2023-01-17T21:48:56.638Z,68.37
2023-01-17T21:51:45.238Z,61.37
2023-01-17T21:54:13.324Z,60.00
2023-01-17T21:57:00.011Z,60.13
2023-01-17T21:59:27.884Z,65.03
2023-01-17T22:01:55.899Z,65.57
2023-01-17T22:04:24.513Z,56.33
2023-01-17T22:06:52.577Z,60.33
2023-01-17T22:09:20.485Z,66.23
2023-01-17T22:11:49.758Z,57.37
2023-01-17T22:14:19.571Z,66.37
2023-01-17T22:16:48.566Z,70.43
2023-01-17T22:19:16.759Z,63.67
2023-01-17T22:21:44.751Z,66.67
2023-01-17T22:24:13.798Z,61.07
2023-01-17T22:26:42.003Z,57.27
2023-01-17T22:29:12.652Z,61.47
2023-01-17T22:31:40.522Z,62.97
2023-01-17T22:34:08.384Z,59.97
2023-01-17T22:36:36.379Z,69.60
2023-01-17T22:39:04.545Z,59.00
2023-01-17T22:41:34.604Z,69.00
2023-01-17T22:44:03.385Z,65.70
2023-01-17T22:46:35.442Z,75.03
2023-01-17T22:49:03.842Z,70.63
2023-01-17T22:51:31.789Z,67.83
2023-01-17T22:54:01.932Z,64.70
2023-01-17T22:56:32.219Z,68.20
2023-01-17T22:59:00.622Z,64.00
2023-01-17T23:01:30.900Z,65.93
2023-01-17T23:04:02.145Z,64.17
2023-01-17T23:06:31.480Z,67.20
2023-01-17T23:09:01.452Z,59.40
2023-01-17T23:11:42.431Z,67.10
2023-01-17T23:14:16.431Z,62.30
2023-01-17T23:17:12.591Z,60.67
2023-01-17T23:19:43.724Z,69.70
2023-01-17T23:22:19.059Z,70.13
2023-01-17T23:24:49.982Z,72.53
2023-01-17T23:27:38.183Z,72.97
2023-01-17T23:30:08.732Z,65.60
2023-01-17T23:32:36.705Z,68.30
2023-01-17T23:35:07.001Z,70.50
2023-01-17T23:37:52.343Z,69.33
2023-01-17T23:40:20.624Z,70.00
2023-01-17T23:43:14.633Z,76.53
2023-01-17T23:45:42.535Z,72.17
2023-01-17T23:48:11.344Z,76.47
2023-01-17T23:50:41.914Z,69.77
2023-01-17T23:53:10.845Z,71.03
2023-01-17T23:55:40.353Z,73.00
2023-01-17T23:58:09.854Z,69.57
